^^
Grace C. Lehan Memorial Weather Station Historical Data
Daily Summary for July 4, 2021 Units:  English    Metric   Both
Daily Weekly Monthly Yearly
  High: Low: Average:
Temperature: 42.7 °F 28 °F 35 °F
Dew Point: 34.8 °F 21.3 °F 27.7 °F
Humidity: 86.7% 63.6% 75%
Wind Speed: 2.7mph 0mph 0.1mph
Wind Gust: 7mph - -
Wind- - NW
Pressure: 30.15 in 30.02 in -
Precipitation: 0.00 in    
 
 
Tabular Data for July 4, 2021
Time Temperature Dew Point Pressure Wind Wind Speed Wind Gust Humidity Rainfall Rate (Hourly) solar
00:04 30.6 °F 21.3 °F 30.05 in Calm     68% 0.00 in 0 W/m2
00:09 30.6 °F 21.3 °F 30.05 in Calm     68% 0.00 in 0 W/m2
00:14 30.6 °F 21.5 °F 30.04 in Calm     68.5% 0.00 in 0 W/m2
00:19 30.6 °F 21.6 °F 30.04 in Calm     68.9% 0.00 in 0 W/m2
00:24 30.6 °F 21.5 °F 30.04 in Calm     68.4% 0.00 in 0 W/m2
00:29 30.6 °F 21.7 °F 30.04 in Calm     69.1% 0.00 in 0 W/m2
00:34 30.6 °F 21.7 °F 30.04 in Calm     69.2% 0.00 in 0 W/m2
00:39 30.5 °F 21.7 °F 30.04 in Calm     69.2% 0.00 in 0 W/m2
00:44 30.6 °F 21.6 °F 30.04 in Calm     69% 0.00 in 0 W/m2
00:49 30.6 °F 21.7 °F 30.04 in Calm     69.1% 0.00 in 0 W/m2
00:54 30.6 °F 21.7 °F 30.04 in Calm     69% 0.00 in 0 W/m2
00:59 30.7 °F 21.7 °F 30.04 in Calm     69% 0.00 in 0 W/m2
01:04 30.7 °F 21.7 °F 30.03 in Calm     69% 0.00 in 0 W/m2
01:09 30.4 °F 21.5 °F 30.04 in Calm     69.2% 0.00 in 0 W/m2
01:14 30.2 °F 21.6 °F 30.04 in Calm     70% 0.00 in 0 W/m2
01:19 29.9 °F 21.6 °F 30.04 in Calm     70.9% 0.00 in 0 W/m2
01:24 29.6 °F 21.7 °F 30.04 in Calm     71.8% 0.00 in 0 W/m2
01:29 29.4 °F 21.5 °F 30.04 in Calm     72% 0.00 in 0 W/m2
01:34 29.3 °F 21.5 °F 30.04 in Calm     72.3% 0.00 in 0 W/m2
01:39 29.1 °F 21.6 °F 30.05 in Calm     73% 0.00 in 0 W/m2
01:44 29.1 °F 21.5 °F 30.05 in Calm     73% 0.00 in 0 W/m2
01:49 29 °F 21.6 °F 30.05 in Calm     73.5% 0.00 in 0 W/m2
01:54 28.9 °F 21.7 °F 30.05 in Calm     74% 0.00 in 0 W/m2
01:59 28.9 °F 21.7 °F 30.05 in Calm     74% 0.00 in 0 W/m2
02:04 28.9 °F 21.7 °F 30.05 in Calm     74% 0.00 in 0 W/m2
02:09 28.9 °F 21.7 °F 30.05 in Calm     74% 0.00 in 0 W/m2
02:14 28.9 °F 21.7 °F 30.05 in Calm     74% 0.00 in 0 W/m2
02:19 28.9 °F 21.9 °F 30.05 in Calm     74.6% 0.00 in 0 W/m2
02:24 28.9 °F 22 °F 30.06 in Calm     75% 0.00 in 0 W/m2
02:29 29 °F 22.2 °F 30.06 in Calm     75.4% 0.00 in 0 W/m2
02:34 29 °F 22.4 °F 30.06 in Calm     76% 0.00 in 0 W/m2
02:39 29 °F 22.4 °F 30.06 in Calm     76% 0.00 in 0 W/m2
02:44 29 °F 22.4 °F 30.06 in Calm     76.1% 0.00 in 0 W/m2
02:49 29 °F 22.7 °F 30.06 in Calm     77% 0.00 in 0 W/m2
02:54 29.1 °F 22.8 °F 30.07 in Calm     77% 0.00 in 0 W/m2
02:59 29.1 °F 23.1 °F 30.07 in Calm     77.9% 0.00 in 0 W/m2
03:04 29.2 °F 23.2 °F 30.07 in Calm     78% 0.00 in 0 W/m2
03:09 29.2 °F 23.5 °F 30.06 in Calm     78.8% 0.00 in 0 W/m2
03:14 29.3 °F 23.6 °F 30.06 in Calm     79% 0.00 in 0 W/m2
03:19 29.4 °F 23.6 °F 30.06 in Calm     78.8% 0.00 in 0 W/m2
03:24 29.4 °F 23.3 °F 30.06 in Calm     77.7% 0.00 in 0 W/m2
03:29 29.5 °F 23.2 °F 30.06 in Calm     77% 0.00 in 0 W/m2
03:34 29.6 °F 23.1 °F 30.07 in Calm     76.5% 0.00 in 0 W/m2
03:39 29.7 °F 23.1 °F 30.06 in Calm     76% 0.00 in 0 W/m2
03:44 29.8 °F 22.9 °F 30.06 in Calm     75.2% 0.00 in 0 W/m2
03:49 29.9 °F 23 °F 30.07 in Calm     75% 0.00 in 0 W/m2
03:54 29.9 °F 23 °F 30.07 in Calm     75% 0.00 in 0 W/m2
03:59 29.9 °F 23 °F 30.06 in Calm     75% 0.00 in 0 W/m2
04:04 29.9 °F 22.8 °F 30.07 in Calm     74.5% 0.00 in 0 W/m2
04:09 29.9 °F 22.7 °F 30.07 in Calm     74.2% 0.00 in 0 W/m2
04:14 29.8 °F 22.6 °F 30.06 in Calm     74.2% 0.00 in 0 W/m2
04:19 29.7 °F 22.8 °F 30.06 in Calm     75% 0.00 in 0 W/m2
04:24 29.7 °F 22.8 °F 30.06 in Calm     75% 0.00 in 0 W/m2
04:29 29.6 °F 22.7 °F 30.07 in Calm     75% 0.00 in 0 W/m2
04:34 29.6 °F 22.9 °F 30.06 in Calm     75.7% 0.00 in 0 W/m2
04:39 29.4 °F 22.8 °F 30.07 in Calm     76% 0.00 in 0 W/m2
04:44 29.3 °F 22.7 °F 30.06 in Calm     76% 0.00 in 0 W/m2
04:49 29.2 °F 22.9 °F 30.06 in Calm     77% 0.00 in 0 W/m2
04:54 29.1 °F 22.8 °F 30.06 in Calm     77% 0.00 in 0 W/m2
04:59 29 °F 22.8 °F 30.06 in Calm     77.2% 0.00 in 0 W/m2
05:04 28.9 °F 22.6 °F 30.07 in Calm     77% 0.00 in 0 W/m2
05:09 28.9 °F 22.8 °F 30.07 in Calm     77.5% 0.00 in 0 W/m2
05:14 28.9 °F 22.6 °F 30.06 in Calm     77% 0.00 in 0 W/m2
05:19 28.8 °F 22.7 °F 30.06 in Calm     77.7% 0.00 in 0 W/m2
05:24 28.7 °F 22.8 °F 30.06 in Calm     78% 0.00 in 0 W/m2
05:29 28.6 °F 22.7 °F 30.06 in Calm     78% 0.00 in 0 W/m2
05:34 28.5 °F 22.7 °F 30.07 in Calm     78.6% 0.00 in 0 W/m2
05:39 28.4 °F 22.7 °F 30.07 in Calm     79% 0.00 in 0 W/m2
05:44 28.3 °F 22.6 °F 30.07 in Calm     79% 0.00 in 0 W/m2
05:49 28.1 °F 22.5 °F 30.07 in Calm     79.2% 0.00 in 0 W/m2
05:54 28.1 °F 22.7 °F 30.07 in Calm     80% 0.00 in 0 W/m2
05:59 28.1 °F 22.7 °F 30.07 in Calm     80% 0.00 in 0 W/m2
06:04 28.1 °F 22.8 °F 30.08 in Calm     80% 0.00 in 0 W/m2
06:09 28.1 °F 22.7 °F 30.07 in Calm     80% 0.00 in 0 W/m2
06:14 28.1 °F 22.8 °F 30.07 in Calm     80% 0.00 in 0 W/m2
06:19 28.2 °F 22.8 °F 30.08 in Calm     80% 0.00 in 0 W/m2
06:22 28.2 °F 22.9 °F 30.08 in Calm     80% 0.00 in 0 W/m2
06:29 28.2 °F 22.8 °F 30.08 in Calm     80% 0.00 in 0 W/m2
06:34 28.1 °F 22.8 °F 30.08 in Calm     80% 0.00 in 0 W/m2
06:39 28.1 °F 22.7 °F 30.08 in Calm     80% 0.00 in 0 W/m2
06:44 28.1 °F 23 °F 30.07 in Calm     80.7% 0.00 in 0 W/m2
06:49 28.1 °F 23 °F 30.07 in Calm     81% 0.00 in 0 W/m2
06:54 28 °F 23 °F 30.08 in Calm     81% 0.00 in 0 W/m2
06:59 28 °F 22.9 °F 30.08 in Calm     81% 0.00 in 0 W/m2
07:04 28 °F 23 °F 30.09 in Calm     81% 0.00 in 0 W/m2
07:09 28.1 °F 23 °F 30.09 in Calm     81% 0.00 in 12 W/m2
07:14 28.1 °F 23 °F 30.08 in Calm     81% 0.00 in 12 W/m2
07:19 28.1 °F 23 °F 30.09 in Calm     81% 0.00 in 12 W/m2
07:24 28.2 °F 23 °F 30.09 in Calm     80.8% 0.00 in 16 W/m2
07:29 28.3 °F 23.3 °F 30.09 in Calm     81% 0.00 in 16 W/m2
07:34 28.5 °F 23.4 °F 30.10 in Calm     81% 0.00 in 23 W/m2
07:39 28.6 °F 23.5 °F 30.10 in Calm     81% 0.00 in 26 W/m2
07:44 28.7 °F 23.7 °F 30.10 in NW 0.1 mph 1 mph 81% 0.00 in 30 W/m2
07:49 29 °F 23.9 °F 30.10 in Calm   1 mph 81% 0.00 in 37 W/m2
07:54 29.2 °F 23.9 °F 30.10 in Calm   1 mph 80.4% 0.00 in 37 W/m2
07:58 29.4 °F 24 °F 30.10 in Calm   1 mph 80% 0.00 in 32 W/m2
08:09 29.9 °F 24.5 °F 30.11 in Calm     80% 0.00 in 33 W/m2
08:14 30.2 °F 24.4 °F 30.11 in Calm     79% 0.00 in 42 W/m2
08:19 30.4 °F 24.7 °F 30.10 in Calm     79% 0.00 in 47 W/m2
08:24 30.7 °F 24.9 °F 30.10 in Calm     79% 0.00 in 47 W/m2
08:29 30.9 °F 24.9 °F 30.10 in Calm     78.2% 0.00 in 51 W/m2
08:34 31.1 °F 24.8 °F 30.10 in Calm     77% 0.00 in 56 W/m2
08:39 31.4 °F 25 °F 30.11 in Calm     77% 0.00 in 56 W/m2
08:44 31.6 °F 25.2 °F 30.11 in Calm     77% 0.00 in 56 W/m2
08:49 31.8 °F 25.4 °F 30.11 in Calm     76.8% 0.00 in 58 W/m2
08:54 32.1 °F 25.4 °F 30.11 in Calm     76.2% 0.00 in 63 W/m2
08:59 32.3 °F 25.3 °F 30.11 in Calm     75% 0.00 in 67 W/m2
09:04 32.5 °F 25.5 °F 30.11 in Calm     75% 0.00 in 70 W/m2
09:09 32.7 °F 25.7 °F 30.11 in Calm     75% 0.00 in 77 W/m2
09:14 32.9 °F 25.6 °F 30.11 in Calm     74.3% 0.00 in 91 W/m2
09:19 33.1 °F 25.6 °F 30.11 in Calm     73.7% 0.00 in 102 W/m2
09:24 33.3 °F 25.5 °F 30.11 in Calm     72.7% 0.00 in 105 W/m2
09:29 33.6 °F 25.9 °F 30.11 in Calm     73% 0.00 in 104 W/m2
09:34 33.8 °F 26 °F 30.11 in Calm   1 mph 72.8% 0.00 in 93 W/m2
09:39 34 °F 26 °F 30.11 in NW 0.2 mph 1 mph 72% 0.00 in 97 W/m2
09:44 34.2 °F 26.1 °F 30.11 in NW 0.1 mph 2 mph 72% 0.00 in 105 W/m2
09:49 34.4 °F 26.3 °F 30.11 in Calm   2 mph 72.2% 0.00 in 107 W/m2
09:54 34.5 °F 26.4 °F 30.11 in NW 0.2 mph 3 mph 72% 0.00 in 111 W/m2
09:59 34.6 °F 26.5 °F 30.11 in Calm   3 mph 72% 0.00 in 109 W/m2
10:04 34.6 °F 26.5 °F 30.11 in Calm   3 mph 72% 0.00 in 114 W/m2
10:09 34.7 °F 27.1 °F 30.11 in NW 0.1 mph 2 mph 73.5% 0.00 in 113 W/m2
10:14 34.8 °F 26.7 °F 30.11 in NW 0.3 mph 3 mph 72% 0.00 in 120 W/m2
10:19 35 °F 26.6 °F 30.11 in NW 0.1 mph 3 mph 71.1% 0.00 in 116 W/m2
10:24 35.1 °F 26.8 °F 30.11 in Calm   3 mph 71.2% 0.00 in 121 W/m2
10:29 35.3 °F 27 °F 30.10 in Calm   3 mph 71.5% 0.00 in 125 W/m2
10:34 35.5 °F 27.1 °F 30.11 in Calm   3 mph 71% 0.00 in 123 W/m2
10:39 35.7 °F 27 °F 30.11 in Calm     70.4% 0.00 in 120 W/m2
10:44 35.9 °F 27.1 °F 30.10 in Calm     70% 0.00 in 144 W/m2
10:49 36.1 °F 27.2 °F 30.10 in Calm     70% 0.00 in 146 W/m2
10:54 36.2 °F 27.3 °F 30.10 in Calm     69.8% 0.00 in 141 W/m2
10:59 36.5 °F 27.3 °F 30.10 in Calm     69.2% 0.00 in 139 W/m2
11:04 36.7 °F 27.6 °F 30.10 in Calm     69.3% 0.00 in 135 W/m2
11:09 37 °F 28 °F 30.09 in Calm     69.7% 0.00 in 134 W/m2
11:14 37.3 °F 28.2 °F 30.09 in Calm     69.4% 0.00 in 134 W/m2
11:19 37.6 °F 28.7 °F 30.09 in Calm     70% 0.00 in 142 W/m2
11:24 38 °F 28.9 °F 30.09 in Calm     69.6% 0.00 in 142 W/m2
11:29 38.3 °F 29 °F 30.09 in Calm     68.8% 0.00 in 135 W/m2
11:34 38.6 °F 29 °F 30.09 in Calm   2 mph 68% 0.00 in 146 W/m2
11:39 38.9 °F 29.2 °F 30.08 in Calm   2 mph 68% 0.00 in 146 W/m2
11:44 39.1 °F 29.5 °F 30.08 in NW 0.3 mph 3 mph 68% 0.00 in 144 W/m2
11:49 39.4 °F 29.7 °F 30.08 in Calm   3 mph 68% 0.00 in 144 W/m2
11:54 39.5 °F 29.9 °F 30.08 in Calm   3 mph 68% 0.00 in 135 W/m2
11:59 39.7 °F 29.9 °F 30.08 in Calm   3 mph 67.5% 0.00 in 134 W/m2
12:09 40 °F 29.9 °F 30.08 in Calm     66.9% 0.00 in 139 W/m2
12:14 40.1 °F 30 °F 30.08 in NW 0.1 mph 2 mph 67% 0.00 in 141 W/m2
12:19 40.2 °F 29.8 °F 30.07 in Calm   2 mph 66.2% 0.00 in 139 W/m2
12:24 40.3 °F 29.6 °F 30.07 in NW 0.5 mph 3 mph 65.5% 0.00 in 139 W/m2
12:29 40.4 °F 29.9 °F 30.07 in NW 0.1 mph 3 mph 65.8% 0.00 in 139 W/m2
12:34 40.5 °F 30 °F 30.07 in NW 0.5 mph 3 mph 65.9% 0.00 in 137 W/m2
12:39 40.6 °F 29.9 °F 30.07 in Calm   3 mph 65.4% 0.00 in 135 W/m2
12:44 40.7 °F 30 °F 30.06 in Calm   3 mph 65.5% 0.00 in 134 W/m2
12:49 40.7 °F 30.1 °F 30.05 in Calm   3 mph 65.5% 0.00 in 134 W/m2
12:54 40.8 °F 30.1 °F 30.05 in Calm   3 mph 65.5% 0.00 in 132 W/m2
12:59 40.7 °F 29.6 °F 30.06 in Calm   3 mph 64.1% 0.00 in 132 W/m2
13:04 40.7 °F 29.9 °F 30.06 in Calm   3 mph 65% 0.00 in 121 W/m2
13:09 40.8 °F 29.9 °F 30.06 in Calm     64.8% 0.00 in 120 W/m2
13:14 40.8 °F 29.9 °F 30.06 in Calm     64.7% 0.00 in 116 W/m2
13:19 40.8 °F 29.7 °F 30.06 in Calm     64.3% 0.00 in 118 W/m2
13:24 40.8 °F 30 °F 30.06 in Calm     64.9% 0.00 in 123 W/m2
13:29 40.9 °F 29.8 °F 30.06 in Calm     64.2% 0.00 in 113 W/m2
13:34 40.9 °F 29.7 °F 30.05 in Calm     64% 0.00 in 111 W/m2
13:39 41 °F 29.7 °F 30.05 in Calm     64% 0.00 in 123 W/m2
13:44 41 °F 29.9 °F 30.04 in NW 0.2 mph 2 mph 64.3% 0.00 in 137 W/m2
13:49 41 °F 29.9 °F 30.04 in NW 0.1 mph 2 mph 64.3% 0.00 in 155 W/m2
13:54 41.1 °F 30.1 °F 30.04 in Calm   2 mph 64.5% 0.00 in 156 W/m2
13:59 41.3 °F 30.4 °F 30.04 in Calm   2 mph 64.8% 0.00 in 155 W/m2
14:04 41.5 °F 30.4 °F 30.03 in Calm   2 mph 64.6% 0.00 in 155 W/m2
14:09 41.6 °F 30.4 °F 30.03 in NW 0.1 mph 2 mph 64.2% 0.00 in 153 W/m2
14:14 41.7 °F 30.4 °F 30.03 in Calm   2 mph 64% 0.00 in 146 W/m2
14:19 41.8 °F 30.5 °F 30.03 in Calm   2 mph 64% 0.00 in 135 W/m2
14:24 41.9 °F 30.6 °F 30.03 in Calm   2 mph 64% 0.00 in 102 W/m2
14:29 42 °F 30.5 °F 30.02 in Calm   2 mph 63.6% 0.00 in 91 W/m2
14:34 42 °F 30.6 °F 30.03 in Calm   2 mph 63.6% 0.00 in 100 W/m2
14:39 42 °F 30.7 °F 30.03 in Calm     64% 0.00 in 107 W/m2
14:44 42 °F 30.7 °F 30.03 in Calm     63.9% 0.00 in 90 W/m2
14:49 42 °F 30.7 °F 30.03 in Calm     63.8% 0.00 in 79 W/m2
14:54 42.1 °F 30.8 °F 30.03 in Calm     64% 0.00 in 79 W/m2
14:59 42.2 °F 30.9 °F 30.03 in Calm     64% 0.00 in 67 W/m2
15:04 42.2 °F 30.8 °F 30.03 in Calm     63.8% 0.00 in 67 W/m2
15:09 42.2 °F 30.8 °F 30.03 in Calm     63.8% 0.00 in 79 W/m2
15:14 42.2 °F 31 °F 30.03 in Calm     64.1% 0.00 in 77 W/m2
15:19 42.3 °F 31.2 °F 30.03 in Calm     64.6% 0.00 in 56 W/m2
15:24 42.4 °F 32 °F 30.03 in Calm     66.4% 0.00 in 49 W/m2
15:29 42.6 °F 32.5 °F 30.03 in Calm     67.3% 0.00 in 44 W/m2
15:34 42.7 °F 32 °F 30.03 in Calm     65.5% 0.00 in 37 W/m2
15:39 42.7 °F 32.5 °F 30.03 in Calm     66.9% 0.00 in 32 W/m2
15:44 42.7 °F 31.9 °F 30.03 in Calm     65.2% 0.00 in 28 W/m2
15:49 42.5 °F 31.4 °F 30.03 in Calm     64.5% 0.00 in 23 W/m2
15:54 42.4 °F 31.5 °F 30.03 in Calm     65% 0.00 in 16 W/m2
15:59 42.2 °F 31.3 °F 30.04 in Calm     65% 0.00 in 11 W/m2
16:00 42.2 °F 31.3 °F 30.04 in Calm     65% 0.00 in 7 W/m2
16:09 41.9 °F 31 °F 30.05 in Calm     65% 0.00 in 5 W/m2
16:14 41.7 °F 31.2 °F 30.05 in Calm     65.8% 0.00 in 5 W/m2
16:19 41.5 °F 31 °F 30.05 in Calm     66% 0.00 in 0 W/m2
16:24 41.2 °F 30.9 °F 30.05 in Calm     66.3% 0.00 in 0 W/m2
16:29 41 °F 30.9 °F 30.04 in Calm     67% 0.00 in 0 W/m2
16:34 40.6 °F 30.5 °F 30.04 in Calm     67% 0.00 in 0 W/m2
16:39 40.3 °F 30.6 °F 30.04 in Calm     67.9% 0.00 in 0 W/m2
16:44 40 °F 30.5 °F 30.04 in Calm     68.5% 0.00 in 0 W/m2
16:49 39.8 °F 30.6 °F 30.04 in Calm     69.3% 0.00 in 0 W/m2
16:54 39.8 °F 31.3 °F 30.04 in Calm     71.6% 0.00 in 0 W/m2
16:59 39.8 °F 31.6 °F 30.04 in Calm     72.4% 0.00 in 0 W/m2
17:04 39.9 °F 31.9 °F 30.04 in Calm     72.8% 0.00 in 0 W/m2
17:09 39.8 °F 31.1 °F 30.04 in Calm     70.9% 0.00 in 0 W/m2
17:14 39.4 °F 30.8 °F 30.04 in Calm     71.2% 0.00 in 0 W/m2
17:19 38.9 °F 30.7 °F 30.05 in Calm     72% 0.00 in 0 W/m2
17:24 38.5 °F 30.3 °F 30.05 in Calm   1 mph 72% 0.00 in 0 W/m2
17:29 38.1 °F 30.3 °F 30.05 in Calm   1 mph 73.1% 0.00 in 0 W/m2
17:34 37.9 °F 30.4 °F 30.05 in Calm   1 mph 74.2% 0.00 in 0 W/m2
17:39 37.6 °F 30.4 °F 30.05 in Calm     74.7% 0.00 in 0 W/m2
17:44 37.5 °F 30.5 °F 30.05 in Calm     75.5% 0.00 in 0 W/m2
17:49 37.3 °F 30.5 °F 30.05 in Calm     76% 0.00 in 0 W/m2
17:54 37.3 °F 30.4 °F 30.05 in Calm     76% 0.00 in 0 W/m2
17:59 37.2 °F 30.4 °F 30.05 in Calm     76% 0.00 in 0 W/m2
18:04 37.4 °F 30.5 °F 30.05 in Calm     76% 0.00 in 0 W/m2
18:09 37.6 °F 30.7 °F 30.05 in Calm     75.9% 0.00 in 0 W/m2
18:14 37.7 °F 30.5 °F 30.05 in Calm     75% 0.00 in 0 W/m2
18:19 37.8 °F 30.6 °F 30.04 in Calm     75% 0.00 in 0 W/m2
18:24 37.8 °F 30.6 °F 30.04 in Calm     75% 0.00 in 0 W/m2
18:29 37.8 °F 30.6 °F 30.04 in Calm     75% 0.00 in 0 W/m2
18:34 37.6 °F 30.4 °F 30.04 in Calm     75% 0.00 in 0 W/m2
18:39 37.4 °F 30.2 °F 30.04 in Calm     75% 0.00 in 0 W/m2
18:44 37.1 °F 30.2 °F 30.05 in Calm     75.7% 0.00 in 0 W/m2
18:49 37 °F 30.5 °F 30.05 in Calm     77% 0.00 in 0 W/m2
18:54 37 °F 30.6 °F 30.05 in Calm     77.4% 0.00 in 0 W/m2
18:59 37 °F 30.8 °F 30.05 in Calm     78% 0.00 in 0 W/m2
19:04 37.1 °F 30.9 °F 30.06 in Calm     78% 0.00 in 0 W/m2
19:09 37.1 °F 30.8 °F 30.06 in Calm     77.8% 0.00 in 0 W/m2
19:14 37 °F 30.8 °F 30.06 in Calm     78% 0.00 in 0 W/m2
19:19 37.1 °F 30.9 °F 30.06 in Calm     78% 0.00 in 0 W/m2
19:24 37.2 °F 31.1 °F 30.05 in Calm     78.6% 0.00 in 0 W/m2
19:29 37.3 °F 31.4 °F 30.05 in Calm     79% 0.00 in 0 W/m2
19:34 37.4 °F 31.5 °F 30.05 in Calm     79% 0.00 in 0 W/m2
19:39 37.6 °F 31.8 °F 30.05 in Calm     79.4% 0.00 in 0 W/m2
19:44 37.7 °F 31.9 °F 30.06 in Calm     79.4% 0.00 in 0 W/m2
19:49 37.7 °F 31.8 °F 30.05 in Calm     79% 0.00 in 0 W/m2
19:54 37.8 °F 32 °F 30.05 in Calm     79.3% 0.00 in 0 W/m2
19:59 37.7 °F 31.8 °F 30.06 in Calm     79% 0.00 in 0 W/m2
20:00 37.7 °F 31.8 °F 30.06 in Calm     79% 0.00 in 0 W/m2
20:09 37.5 °F 31.9 °F 30.05 in Calm     80% 0.00 in 0 W/m2
20:14 37.5 °F 32 °F 30.05 in Calm     80.3% 0.00 in 0 W/m2
20:19 37.5 °F 32.2 °F 30.06 in Calm     81% 0.00 in 0 W/m2
20:24 37.5 °F 32.2 °F 30.06 in Calm   2 mph 81% 0.00 in 0 W/m2
20:29 37.6 °F 32.4 °F 30.07 in NW 0.5 mph 2 mph 81.4% 0.00 in 0 W/m2
20:34 37.6 °F 32.6 °F 30.07 in Calm   2 mph 82% 0.00 in 0 W/m2
20:39 37.8 °F 33.2 °F 30.07 in NW 0.6 mph 4 mph 83.1% 0.00 in 0 W/m2
20:44 38.2 °F 33.8 °F 30.07 in WNW 1 mph 4 mph 84% 0.00 in 0 W/m2
20:49 38.6 °F 34.2 °F 30.06 in WNW 0.4 mph 4 mph 84% 0.00 in 0 W/m2
20:54 38.9 °F 34.4 °F 30.07 in WNW 1.1 mph 4 mph 83.7% 0.00 in 0 W/m2
20:59 39.1 °F 34.5 °F 30.07 in WNW 1.1 mph 5 mph 83.3% 0.00 in 0 W/m2
21:04 39.3 °F 34.6 °F 30.08 in West 0.9 mph 5 mph 83% 0.00 in 0 W/m2
21:09 39.4 °F 34.7 °F 30.08 in West 1.2 mph 5 mph 83% 0.00 in 0 W/m2
21:14 39.5 °F 34.8 °F 30.08 in West 0.7 mph 5 mph 83% 0.00 in 0 W/m2
21:19 39.5 °F 34.8 °F 30.08 in West 1.9 mph 5 mph 83% 0.00 in 0 W/m2
21:24 39.4 °F 34.5 °F 30.08 in WSW 1.5 mph 5 mph 82.4% 0.00 in 0 W/m2
21:29 39.4 °F 34.3 °F 30.08 in WSW 1.6 mph 5 mph 82% 0.00 in 0 W/m2
21:34 39.3 °F 34.2 °F 30.09 in WNW 1.8 mph 6 mph 82% 0.00 in 0 W/m2
21:39 39.1 °F 34.1 °F 30.10 in NW 2.1 mph 6 mph 82% 0.00 in 0 W/m2
21:44 38.9 °F 33.9 °F 30.10 in NNW 2.7 mph 7 mph 82.2% 0.00 in 0 W/m2
21:49 38.7 °F 34 °F 30.10 in NNW 1.4 mph 7 mph 83% 0.00 in 0 W/m2
21:54 38.6 °F 33.7 °F 30.11 in NW 0.3 mph 7 mph 82.5% 0.00 in 0 W/m2
21:59 38.5 °F 33.4 °F 30.11 in Calm   7 mph 82% 0.00 in 0 W/m2
22:04 38.3 °F 33.3 °F 30.11 in Calm   7 mph 82% 0.00 in 0 W/m2
22:09 38.2 °F 33.2 °F 30.12 in Calm     82% 0.00 in 0 W/m2
22:14 38 °F 33 °F 30.12 in Calm     82% 0.00 in 0 W/m2
22:19 37.7 °F 32.7 °F 30.12 in Calm     82% 0.00 in 0 W/m2
22:24 37.4 °F 32.5 °F 30.12 in Calm     82.3% 0.00 in 0 W/m2
22:29 37.2 °F 32.6 °F 30.12 in Calm     83% 0.00 in 0 W/m2
22:34 37.1 °F 32.6 °F 30.12 in Calm     83.7% 0.00 in 0 W/m2
22:39 37 °F 32.6 °F 30.12 in Calm     84% 0.00 in 0 W/m2
22:44 36.9 °F 32.6 °F 30.12 in Calm     84% 0.00 in 0 W/m2
22:49 36.8 °F 32.5 °F 30.12 in Calm     84% 0.00 in 0 W/m2
22:54 36.8 °F 32.4 °F 30.12 in Calm     84.1% 0.00 in 0 W/m2
22:59 36.6 °F 32.2 °F 30.12 in Calm     84% 0.00 in 0 W/m2
23:00 36.5 °F 32.1 °F 30.12 in Calm     84% 0.00 in 0 W/m2
23:09 36.3 °F 32 °F 30.12 in NW 0.2 mph 2 mph 84% 0.00 in 0 W/m2
23:14 36.1 °F 31.8 °F 30.12 in Calm   2 mph 84% 0.00 in 0 W/m2
23:19 35.9 °F 31.7 °F 30.12 in Calm   2 mph 84.3% 0.00 in 0 W/m2
23:24 35.8 °F 31.7 °F 30.12 in NW 0.1 mph 2 mph 85% 0.00 in 0 W/m2
23:29 35.5 °F 31.4 °F 30.13 in Calm   2 mph 85% 0.00 in 0 W/m2
23:34 35.2 °F 31.1 °F 30.14 in NW 0.3 mph 2 mph 85% 0.00 in 0 W/m2
23:39 34.8 °F 30.8 °F 30.14 in Calm   2 mph 85% 0.00 in 0 W/m2
23:44 34.5 °F 30.6 °F 30.14 in Calm   2 mph 85.4% 0.00 in 0 W/m2
23:49 34.3 °F 30.5 °F 30.14 in Calm   2 mph 86% 0.00 in 0 W/m2
23:54 34 °F 30.4 °F 30.14 in Calm   2 mph 86.2% 0.00 in 0 W/m2
23:59 33.9 °F 30.3 °F 30.15 in Calm   2 mph 86.7% 0.00 in 0 W/m2
Hartford County Weather
Compliments of Weather Underground - 2 mb